createdAt,value
2019-03-04T00:01:56.603Z,70.80
2019-03-04T00:04:25.129Z,70.70
2019-03-04T00:06:53.677Z,70.60
2019-03-04T00:09:24.980Z,70.70
2019-03-04T00:11:53.526Z,70.80
2019-03-04T00:14:22.005Z,71.10
2019-03-04T00:16:50.474Z,71.50
2019-03-04T00:19:19.062Z,71.50
2019-03-04T00:21:47.621Z,71.70
2019-03-04T00:24:16.149Z,72.00
2019-03-04T00:26:44.737Z,72.10
2019-03-04T00:29:13.318Z,72.50
2019-03-04T00:31:41.769Z,72.50
2019-03-04T00:34:13.167Z,72.90
2019-03-04T00:36:41.592Z,73.30
2019-03-04T00:39:11.205Z,73.20
2019-03-04T00:41:39.730Z,73.40
2019-03-04T00:44:08.295Z,73.60
2019-03-04T00:46:36.821Z,73.60
2019-03-04T00:49:05.349Z,73.70
2019-03-04T00:51:33.934Z,72.90
2019-03-04T00:54:02.414Z,73.40
2019-03-04T00:56:30.927Z,73.60
2019-03-04T00:58:59.392Z,73.70
2019-03-04T01:01:27.879Z,73.30
2019-03-04T01:03:56.388Z,73.40
2019-03-04T01:06:24.918Z,73.50
2019-03-04T01:08:53.337Z,73.60
2019-03-04T01:11:21.922Z,73.50
2019-03-04T01:13:50.404Z,73.10
2019-03-04T01:16:18.874Z,73.10
2019-03-04T01:18:47.453Z,73.00
2019-03-04T01:21:16.016Z,73.00
2019-03-04T01:23:44.499Z,73.00
2019-03-04T01:26:13.120Z,72.90
2019-03-04T01:28:42.781Z,72.30
2019-03-04T01:31:11.229Z,72.10
2019-03-04T01:33:39.749Z,71.60
2019-03-04T01:36:08.308Z,71.00
2019-03-04T01:38:36.790Z,70.80
2019-03-04T01:41:05.305Z,70.30
2019-03-04T01:43:33.852Z,70.00
2019-03-04T01:46:02.478Z,69.70
2019-03-04T01:48:31.078Z,69.20
2019-03-04T01:50:59.651Z,68.90
2019-03-04T01:53:28.281Z,68.50
2019-03-04T01:55:56.827Z,68.10
2019-03-04T01:58:25.299Z,67.30
2019-03-04T02:00:53.771Z,67.00
2019-03-04T02:03:22.357Z,66.60
2019-03-04T02:05:50.896Z,65.60
2019-03-04T02:08:19.526Z,64.70
2019-03-04T02:10:48.121Z,63.80
2019-03-04T02:13:16.671Z,63.60
2019-03-04T02:15:45.192Z,63.10
2019-03-04T02:18:13.736Z,61.90
2019-03-04T02:20:42.273Z,62.60
2019-03-04T02:23:10.819Z,61.50
2019-03-04T02:25:45.610Z,61.50
2019-03-04T02:28:14.083Z,61.20
2019-03-04T02:30:42.589Z,60.50
2019-03-04T02:33:11.109Z,60.10
2019-03-04T02:35:39.648Z,59.60
2019-03-04T02:38:08.136Z,60.10
2019-03-04T02:40:36.638Z,60.10
2019-03-04T02:43:05.098Z,60.30
2019-03-04T02:45:33.568Z,60.40
2019-03-04T02:48:02.173Z,60.60
2019-03-04T02:50:30.619Z,61.20
2019-03-04T02:52:59.117Z,61.70
2019-03-04T02:55:27.625Z,62.10
2019-03-04T02:57:56.123Z,62.20
2019-03-04T03:00:24.598Z,62.60
2019-03-04T03:02:53.129Z,62.80
2019-03-04T03:05:21.601Z,63.10
2019-03-04T03:07:50.066Z,63.50
2019-03-04T03:10:18.719Z,63.40
2019-03-04T03:12:47.462Z,64.20
2019-03-04T03:15:18.163Z,64.70
2019-03-04T03:17:46.687Z,65.00
2019-03-04T03:20:15.932Z,65.20
2019-03-04T03:22:44.488Z,65.50
2019-03-04T03:25:14.296Z,66.00
2019-03-04T03:27:42.754Z,66.20
2019-03-04T03:30:20.403Z,66.80
2019-03-04T03:32:49.001Z,67.20
2019-03-04T03:35:17.458Z,67.10
2019-03-04T03:37:46.024Z,67.00
2019-03-04T03:40:19.759Z,67.30
2019-03-04T03:42:48.238Z,67.30
2019-03-04T03:45:16.793Z,67.40
2019-03-04T03:47:45.409Z,67.60
2019-03-04T03:50:17.021Z,67.70
2019-03-04T03:52:46.209Z,68.10
2019-03-04T03:55:15.831Z,68.40
2019-03-04T03:57:44.271Z,68.10
2019-03-04T04:00:23.367Z,68.20
2019-03-04T04:02:51.837Z,68.40
2019-03-04T04:05:20.377Z,68.50
2019-03-04T04:07:49.007Z,68.20
2019-03-04T04:10:19.682Z,68.90
2019-03-04T04:12:48.154Z,68.10
2019-03-04T04:15:17.895Z,68.10
2019-03-04T04:17:46.436Z,67.70
2019-03-04T04:20:15.065Z,67.80
2019-03-04T04:22:43.603Z,67.50
2019-03-04T04:25:12.723Z,67.50
2019-03-04T04:27:41.210Z,67.30
2019-03-04T04:30:12.249Z,67.60
2019-03-04T04:32:42.528Z,66.30
2019-03-04T04:35:11.014Z,64.00
2019-03-04T04:37:39.550Z,63.90
2019-03-04T04:40:11.266Z,62.80
2019-03-04T04:42:39.821Z,61.40
2019-03-04T04:45:09.106Z,60.90
2019-03-04T04:47:38.652Z,60.10
2019-03-04T04:50:16.224Z,58.40
2019-03-04T04:52:44.702Z,57.90
2019-03-04T04:55:13.234Z,57.80
2019-03-04T04:57:43.237Z,58.10
2019-03-04T05:00:17.329Z,58.40
2019-03-04T05:02:45.796Z,58.50
2019-03-04T05:05:14.446Z,58.70
2019-03-04T05:07:42.982Z,59.40
2019-03-04T05:10:14.725Z,59.70
2019-03-04T05:12:43.254Z,60.60
2019-03-04T05:15:13.691Z,61.60
2019-03-04T05:17:42.206Z,62.00
2019-03-04T05:20:18.045Z,62.60
2019-03-04T05:22:46.544Z,63.20
2019-03-04T05:25:15.003Z,63.70
2019-03-04T05:27:43.603Z,64.20
2019-03-04T05:30:15.063Z,64.60
2019-03-04T05:32:43.541Z,65.00
2019-03-04T05:35:12.076Z,65.20
2019-03-04T05:37:40.605Z,65.30
2019-03-04T05:40:17.792Z,65.10
2019-03-04T05:42:46.501Z,64.90
2019-03-04T05:45:16.209Z,64.60
2019-03-04T05:47:44.727Z,64.30
2019-03-04T05:50:22.125Z,64.60
2019-03-04T05:52:50.637Z,64.10
2019-03-04T05:55:19.124Z,64.10
2019-03-04T05:57:47.663Z,64.20
2019-03-04T06:00:22.746Z,64.80
2019-03-04T06:02:52.973Z,72.80
2019-03-04T06:05:21.445Z,74.30
2019-03-04T06:07:54.701Z,75.20
2019-03-04T06:10:23.170Z,74.70
2019-03-04T06:12:51.657Z,72.20
2019-03-04T06:15:21.498Z,72.10
2019-03-04T06:17:49.966Z,72.00
2019-03-04T06:20:19.862Z,71.70
2019-03-04T06:22:48.524Z,72.50
2019-03-04T06:25:19.671Z,72.80
2019-03-04T06:27:48.119Z,72.70
2019-03-04T06:30:19.554Z,72.30
2019-03-04T06:32:48.033Z,72.60
2019-03-04T06:35:16.507Z,73.20
2019-03-04T06:37:45.211Z,72.80
2019-03-04T06:40:15.691Z,72.80
2019-03-04T06:42:44.220Z,72.80
2019-03-04T06:45:15.352Z,72.10
2019-03-04T06:47:43.886Z,72.50
2019-03-04T06:50:49.796Z,71.80
2019-03-04T06:53:43.715Z,72.20
2019-03-04T06:56:15.861Z,72.00
2019-03-04T06:58:59.214Z,72.90
2019-03-04T07:01:47.488Z,73.40
2019-03-04T07:04:47.643Z,73.30
2019-03-04T07:07:16.227Z,73.60
2019-03-04T07:09:44.876Z,73.00
2019-03-04T07:12:13.486Z,72.50
2019-03-04T07:14:42.273Z,71.40
2019-03-04T07:17:10.734Z,69.80
2019-03-04T07:19:39.281Z,69.10
2019-03-04T07:22:07.801Z,67.60
2019-03-04T07:24:36.278Z,66.40
2019-03-04T07:27:04.743Z,65.90
2019-03-04T07:29:33.379Z,64.70
2019-03-04T07:32:01.814Z,65.10
2019-03-04T07:34:30.392Z,65.40
2019-03-04T07:36:59.193Z,65.40
2019-03-04T07:39:29.146Z,65.60
2019-03-04T07:41:58.899Z,66.00
2019-03-04T07:44:27.429Z,66.40
2019-03-04T07:46:55.890Z,66.70
2019-03-04T07:49:24.435Z,68.30
2019-03-04T07:51:53.174Z,68.80
2019-03-04T07:54:21.666Z,69.50
2019-03-04T07:56:50.137Z,69.70
2019-03-04T07:59:18.659Z,70.50
2019-03-04T08:01:47.228Z,71.80
2019-03-04T08:04:15.760Z,71.60
2019-03-04T08:06:44.276Z,71.30
2019-03-04T08:09:34.318Z,71.90
2019-03-04T08:12:17.902Z,71.70
2019-03-04T08:14:47.614Z,71.80
2019-03-04T08:17:16.228Z,71.30
2019-03-04T08:19:44.758Z,71.80
2019-03-04T08:22:13.235Z,71.40
2019-03-04T08:24:41.933Z,71.50
2019-03-04T08:27:10.700Z,70.20
2019-03-04T08:29:39.233Z,69.00
2019-03-04T08:32:07.990Z,69.10
2019-03-04T08:34:36.672Z,69.00
2019-03-04T08:37:05.214Z,68.40
2019-03-04T08:39:33.712Z,67.80
2019-03-04T08:42:03.307Z,67.80
2019-03-04T08:44:31.933Z,67.80
2019-03-04T08:47:00.413Z,67.20
2019-03-04T08:49:29.018Z,67.50
2019-03-04T08:51:57.481Z,67.50
2019-03-04T08:54:26.030Z,67.60
2019-03-04T08:57:03.624Z,67.60
2019-03-04T08:59:24.665Z,68.50
2019-03-04T09:01:53.149Z,70.80
2019-03-04T09:04:21.884Z,71.30
2019-03-04T09:06:50.419Z,73.90
2019-03-04T09:09:19.094Z,75.90
2019-03-04T09:11:47.643Z,76.80
2019-03-04T09:14:16.222Z,77.40
2019-03-04T09:16:44.794Z,78.90
2019-03-04T09:19:13.569Z,78.90
2019-03-04T09:21:42.122Z,79.80
2019-03-04T09:24:13.402Z,80.70
2019-03-04T09:26:41.995Z,81.70
2019-03-04T09:29:10.549Z,82.10
2019-03-04T09:31:39.093Z,82.10
2019-03-04T09:34:07.729Z,81.00
2019-03-04T09:36:36.193Z,80.00
2019-03-04T09:39:05.717Z,79.70
2019-03-04T09:41:34.230Z,79.70
2019-03-04T09:44:05.070Z,79.40
2019-03-04T09:46:33.534Z,79.40
2019-03-04T09:49:02.516Z,78.90
2019-03-04T09:51:31.128Z,80.90
2019-03-04T09:53:59.575Z,81.70
2019-03-04T09:56:28.190Z,82.20
2019-03-04T09:58:56.649Z,83.00
2019-03-04T10:01:28.361Z,81.00
2019-03-04T10:04:00.186Z,78.60
2019-03-04T10:06:59.089Z,78.70
2019-03-04T10:09:42.995Z,79.00
2019-03-04T10:12:32.104Z,75.90
2019-03-04T10:15:09.488Z,74.00
2019-03-04T10:17:46.991Z,69.00
2019-03-04T10:20:38.368Z,65.30
2019-03-04T10:23:13.092Z,64.80
2019-03-04T10:25:47.720Z,64.60
2019-03-04T10:28:31.304Z,61.90
2019-03-04T10:31:33.233Z,63.50
2019-03-04T10:34:25.802Z,62.40
2019-03-04T10:37:06.665Z,58.30
2019-03-04T10:39:38.391Z,57.20
2019-03-04T10:42:26.842Z,58.10
2019-03-04T10:44:58.681Z,60.10
2019-03-04T10:47:27.268Z,61.60
2019-03-04T10:49:55.978Z,62.00
2019-03-04T10:52:24.504Z,62.50
2019-03-04T10:54:53.052Z,63.40
2019-03-04T10:57:21.598Z,64.00
2019-03-04T10:59:50.165Z,63.80
2019-03-04T11:02:18.725Z,61.00
2019-03-04T11:04:47.263Z,59.60
2019-03-04T11:07:15.726Z,57.20
2019-03-04T11:09:44.206Z,55.80
2019-03-04T11:12:14.146Z,53.60
2019-03-04T11:14:42.662Z,53.50
2019-03-04T11:17:11.138Z,52.00
2019-03-04T11:19:39.830Z,52.20
2019-03-04T11:22:08.431Z,52.50
2019-03-04T11:24:36.909Z,53.50
2019-03-04T11:27:07.228Z,52.60
2019-03-04T11:29:35.764Z,50.30
2019-03-04T11:32:04.394Z,48.60
2019-03-04T11:34:33.263Z,47.40
2019-03-04T11:37:05.108Z,43.20
2019-03-04T11:39:44.215Z,41.20
2019-03-04T11:42:12.853Z,41.50
2019-03-04T11:44:41.394Z,40.90
2019-03-04T11:47:09.895Z,39.90
2019-03-04T11:49:38.512Z,39.80
2019-03-04T11:52:07.010Z,41.20
2019-03-04T11:54:35.498Z,41.90
2019-03-04T11:57:03.968Z,42.90
2019-03-04T11:59:32.500Z,44.50
2019-03-04T12:02:07.021Z,45.50
2019-03-04T12:04:35.558Z,45.60
2019-03-04T12:07:06.031Z,48.10
2019-03-04T12:09:35.848Z,48.80
2019-03-04T12:12:04.371Z,49.50
2019-03-04T12:14:32.985Z,48.80
2019-03-04T12:17:01.593Z,47.20
2019-03-04T12:19:30.127Z,48.10
2019-03-04T12:21:59.261Z,46.60
2019-03-04T12:24:29.018Z,47.80
2019-03-04T12:26:57.549Z,48.20
2019-03-04T12:29:26.103Z,47.20
2019-03-04T12:32:02.553Z,47.40
2019-03-04T12:34:31.102Z,42.10
2019-03-04T12:37:01.188Z,38.60
2019-03-04T12:39:29.744Z,37.20
2019-03-04T12:41:58.346Z,36.80
2019-03-04T12:44:26.888Z,37.20
2019-03-04T12:46:55.408Z,35.80
2019-03-04T12:49:24.017Z,34.80
2019-03-04T12:51:52.470Z,32.90
2019-03-04T12:54:21.002Z,33.30
2019-03-04T12:56:49.490Z,34.00
2019-03-04T12:59:17.965Z,35.80
2019-03-04T13:01:46.493Z,37.20
2019-03-04T13:04:15.010Z,38.20
2019-03-04T13:06:43.671Z,39.30
2019-03-04T13:09:14.731Z,38.90
2019-03-04T13:11:42.565Z,40.60
2019-03-04T13:14:11.134Z,40.40
2019-03-04T13:16:39.708Z,40.10
2019-03-04T13:19:09.920Z,40.90
2019-03-04T13:21:38.477Z,40.20
2019-03-04T13:24:07.182Z,40.90
2019-03-04T13:26:35.719Z,41.10
2019-03-04T13:29:05.002Z,39.40
2019-03-04T13:31:33.604Z,40.30
2019-03-04T13:34:02.089Z,39.60
2019-03-04T13:36:30.715Z,39.70
2019-03-04T13:38:59.293Z,39.10
2019-03-04T13:41:28.818Z,37.60
2019-03-04T13:43:57.329Z,37.40
2019-03-04T13:46:26.028Z,38.90
2019-03-04T13:48:55.738Z,39.10
2019-03-04T13:51:27.549Z,39.40
2019-03-04T13:53:56.028Z,40.20
2019-03-04T13:56:24.658Z,40.50
2019-03-04T13:58:53.135Z,40.30
2019-03-04T14:01:21.736Z,40.60
2019-03-04T14:03:50.208Z,41.10
2019-03-04T14:06:18.741Z,41.20
2019-03-04T14:08:47.327Z,41.60
2019-03-04T14:11:15.863Z,41.60
2019-03-04T14:13:46.057Z,41.50
2019-03-04T14:16:14.663Z,41.10
2019-03-04T14:18:43.270Z,41.90
2019-03-04T14:21:11.833Z,41.80
2019-03-04T14:23:40.497Z,41.90
2019-03-04T14:26:10.672Z,42.30
2019-03-04T14:28:39.214Z,42.20
2019-03-04T14:31:07.781Z,42.20
2019-03-04T14:33:36.449Z,42.90
2019-03-04T14:36:05.134Z,43.90
2019-03-04T14:38:34.644Z,44.30
2019-03-04T14:41:03.146Z,44.70
2019-03-04T14:43:31.630Z,44.60
2019-03-04T14:46:00.211Z,45.40
2019-03-04T14:48:28.801Z,44.80
2019-03-04T14:50:57.337Z,44.20
2019-03-04T14:53:25.844Z,45.20
2019-03-04T14:55:58.071Z,45.20
2019-03-04T14:58:26.304Z,45.30
2019-03-04T15:00:54.969Z,44.60
2019-03-04T15:03:24.139Z,45.50
2019-03-04T15:05:52.693Z,45.80
2019-03-04T15:08:21.316Z,45.60
2019-03-04T15:10:49.851Z,45.10
2019-03-04T15:13:20.029Z,45.00
2019-03-04T15:15:48.627Z,44.60
2019-03-04T15:18:17.094Z,45.10
2019-03-04T15:20:45.645Z,44.80
2019-03-04T15:23:14.254Z,45.00
2019-03-04T15:25:44.432Z,44.90
2019-03-04T15:28:16.168Z,44.50
2019-03-04T15:30:55.893Z,44.70
2019-03-04T15:33:24.355Z,45.00
2019-03-04T15:35:52.825Z,45.10
2019-03-04T15:38:21.422Z,44.90
2019-03-04T15:40:50.112Z,45.00
2019-03-04T15:43:18.669Z,45.60
2019-03-04T15:45:48.913Z,45.70
2019-03-04T15:48:23.838Z,46.20
2019-03-04T15:50:52.401Z,46.60
2019-03-04T15:53:21.056Z,47.10
2019-03-04T15:55:54.649Z,47.60
2019-03-04T15:58:23.173Z,48.40
2019-03-04T16:00:51.805Z,49.10
2019-03-04T16:03:20.426Z,50.20
2019-03-04T16:05:49.084Z,50.20
2019-03-04T16:08:19.275Z,50.80
2019-03-04T16:10:47.778Z,51.40
2019-03-04T16:13:16.377Z,51.90
2019-03-04T16:15:46.678Z,52.00
2019-03-04T16:18:15.320Z,52.30
2019-03-04T16:20:43.894Z,52.90
2019-03-04T16:23:12.441Z,52.60
2019-03-04T16:25:40.901Z,53.70
2019-03-04T16:28:27.668Z,54.60
2019-03-04T16:30:56.220Z,54.80
2019-03-04T16:33:25.286Z,54.70
2019-03-04T16:35:53.824Z,54.90
2019-03-04T16:38:22.301Z,54.80
2019-03-04T16:40:50.893Z,55.40
2019-03-04T16:43:19.490Z,55.80
2019-03-04T16:45:47.957Z,56.30
2019-03-04T16:48:16.439Z,57.10
2019-03-04T16:50:47.016Z,57.30
2019-03-04T16:53:33.515Z,57.30
2019-03-04T16:56:02.037Z,57.90
2019-03-04T16:58:30.578Z,58.80
2019-03-04T17:00:59.063Z,58.20
2019-03-04T17:03:27.565Z,58.10
2019-03-04T17:05:56.097Z,58.80
2019-03-04T17:08:24.637Z,59.20
2019-03-04T17:10:53.221Z,59.30
2019-03-04T17:13:21.794Z,59.50
2019-03-04T17:15:50.359Z,59.90
2019-03-04T17:18:18.973Z,60.10
2019-03-04T17:20:47.444Z,60.60
2019-03-04T17:23:16.021Z,60.70
2019-03-04T17:25:44.614Z,60.80
2019-03-04T17:28:13.195Z,60.80
2019-03-04T17:30:41.754Z,61.10
2019-03-04T17:33:10.353Z,61.30
2019-03-04T17:35:38.813Z,61.70
2019-03-04T17:38:09.137Z,61.50
2019-03-04T17:40:37.689Z,61.60
2019-03-04T17:43:07.266Z,62.00
2019-03-04T17:45:35.806Z,62.80
2019-03-04T17:48:04.478Z,61.90
2019-03-04T17:50:43.974Z,61.90
2019-03-04T17:53:16.600Z,61.40
2019-03-04T17:55:45.617Z,61.60
2019-03-04T17:58:14.149Z,61.50
2019-03-04T18:00:44.343Z,61.00
2019-03-04T18:03:12.899Z,61.10
2019-03-04T18:05:41.322Z,60.90
2019-03-04T18:08:09.937Z,62.90
2019-03-04T18:10:38.489Z,64.20
2019-03-04T18:13:13.317Z,67.10
2019-03-04T18:15:43.012Z,67.60
2019-03-04T18:18:13.592Z,68.00
2019-03-04T18:20:41.693Z,67.80
2019-03-04T18:23:10.258Z,68.80
2019-03-04T18:25:47.973Z,69.50
2019-03-04T18:28:39.169Z,69.70
2019-03-04T18:31:30.146Z,72.50
2019-03-04T18:34:21.393Z,75.30
2019-03-04T18:37:14.050Z,75.90
2019-03-04T18:39:57.693Z,77.50
2019-03-04T18:42:36.325Z,78.90
2019-03-04T18:45:16.872Z,80.30
2019-03-04T18:48:00.890Z,81.30
2019-03-04T18:50:29.488Z,82.30
2019-03-04T18:52:57.966Z,83.10
2019-03-04T18:55:26.508Z,82.40
2019-03-04T18:57:55.085Z,82.20
2019-03-04T19:00:25.570Z,81.60
2019-03-04T19:02:54.450Z,80.80
2019-03-04T19:05:23.522Z,80.90
2019-03-04T19:07:52.082Z,81.20
2019-03-04T19:10:20.550Z,80.40
2019-03-04T19:12:49.153Z,80.50
2019-03-04T19:15:17.612Z,80.60
2019-03-04T19:17:46.154Z,80.70
2019-03-04T19:20:17.255Z,80.00
2019-03-04T19:22:45.715Z,79.60
2019-03-04T19:25:14.630Z,79.80
2019-03-04T19:27:43.160Z,79.80
2019-03-04T19:30:14.024Z,80.20
2019-03-04T19:32:42.483Z,80.20
2019-03-04T19:35:13.609Z,80.60
2019-03-04T19:37:42.069Z,79.50
2019-03-04T19:40:12.129Z,80.10
2019-03-04T19:42:40.713Z,79.90
2019-03-04T19:45:18.025Z,79.70
2019-03-04T19:47:46.697Z,79.80
2019-03-04T19:50:15.413Z,80.20
2019-03-04T19:52:43.965Z,79.90
2019-03-04T19:55:14.309Z,79.70
2019-03-04T19:57:42.775Z,79.20
2019-03-04T20:00:16.239Z,79.60
2019-03-04T20:02:44.045Z,79.60
2019-03-04T20:05:12.620Z,80.10
2019-03-04T20:07:41.182Z,79.50
2019-03-04T20:10:14.137Z,79.80
2019-03-04T20:12:42.678Z,79.40
2019-03-04T20:15:20.191Z,79.70
2019-03-04T20:17:48.677Z,79.70
2019-03-04T20:20:17.218Z,79.60
2019-03-04T20:22:48.433Z,79.90
2019-03-04T20:25:18.166Z,79.90
2019-03-04T20:27:46.668Z,79.90
2019-03-04T20:30:20.041Z,80.30
2019-03-04T20:32:48.553Z,79.90
2019-03-04T20:35:17.959Z,80.50
2019-03-04T20:37:55.659Z,80.10
2019-03-04T20:40:24.303Z,79.80
2019-03-04T20:42:52.848Z,79.90
2019-03-04T20:45:23.103Z,80.10
2019-03-04T20:47:51.554Z,79.70
2019-03-04T20:50:21.745Z,79.60
2019-03-04T20:53:02.880Z,79.60
2019-03-04T20:55:31.580Z,79.20
2019-03-04T20:58:00.171Z,78.80
2019-03-04T21:00:37.954Z,78.70
2019-03-04T21:03:08.532Z,79.00
2019-03-04T21:05:37.177Z,79.40
2019-03-04T21:08:06.386Z,79.10
2019-03-04T21:10:35.104Z,78.60
2019-03-04T21:13:13.762Z,78.40
2019-03-04T21:15:42.624Z,78.60
2019-03-04T21:18:11.252Z,78.40
2019-03-04T21:20:40.002Z,78.10
2019-03-04T21:23:08.509Z,77.90
2019-03-04T21:26:01.377Z,78.30
2019-03-04T21:28:35.717Z,78.30
2019-03-04T21:31:40.766Z,78.20
2019-03-04T21:34:12.631Z,78.30
2019-03-04T21:37:00.952Z,78.40
2019-03-04T21:39:44.232Z,79.10
2019-03-04T21:42:24.708Z,79.00
2019-03-04T21:45:10.964Z,79.20
2019-03-04T21:47:48.514Z,78.50
2019-03-04T21:50:35.786Z,79.20
2019-03-04T21:53:13.369Z,78.60
2019-03-04T21:55:53.897Z,78.40
2019-03-04T21:58:22.474Z,78.20
2019-03-04T22:01:00.504Z,77.10
2019-03-04T22:03:29.366Z,76.90
2019-03-04T22:05:57.908Z,76.40
2019-03-04T22:08:26.598Z,76.50
2019-03-04T22:10:57.466Z,76.60
2019-03-04T22:13:25.983Z,76.40
2019-03-04T22:15:57.853Z,75.90
2019-03-04T22:18:31.824Z,76.60
2019-03-04T22:21:25.116Z,75.90
2019-03-04T22:23:53.685Z,75.80
2019-03-04T22:26:22.429Z,76.10
2019-03-04T22:28:50.908Z,76.20
2019-03-04T22:31:19.438Z,76.40
2019-03-04T22:33:47.966Z,76.50
2019-03-04T22:36:16.703Z,76.30
2019-03-04T22:38:46.800Z,76.70
2019-03-04T22:41:15.398Z,77.50
2019-03-04T22:43:43.897Z,76.40
2019-03-04T22:46:12.563Z,75.60
2019-03-04T22:48:41.121Z,75.30
2019-03-04T22:51:09.617Z,74.90
2019-03-04T22:53:38.115Z,74.00
2019-03-04T22:56:06.636Z,74.00
2019-03-04T22:58:35.217Z,73.90
2019-03-04T23:01:08.613Z,73.40
2019-03-04T23:03:37.639Z,72.80
2019-03-04T23:06:12.325Z,73.00
2019-03-04T23:08:40.969Z,72.80
2019-03-04T23:11:09.502Z,71.90
2019-03-04T23:13:46.980Z,71.40
2019-03-04T23:16:18.474Z,70.80
2019-03-04T23:18:47.030Z,70.20
2019-03-04T23:21:15.657Z,70.10
2019-03-04T23:23:44.138Z,70.60
2019-03-04T23:26:12.603Z,70.90
2019-03-04T23:28:41.204Z,71.30
2019-03-04T23:31:09.678Z,72.20
2019-03-04T23:33:38.317Z,73.20
2019-03-04T23:36:09.757Z,73.80
2019-03-04T23:38:38.404Z,74.80
2019-03-04T23:41:10.916Z,75.30
2019-03-04T23:43:39.612Z,76.20
2019-03-04T23:46:08.086Z,76.90
2019-03-04T23:48:36.560Z,77.20
2019-03-04T23:51:05.270Z,77.60
2019-03-04T23:53:33.898Z,78.00
2019-03-04T23:56:02.381Z,78.20
2019-03-04T23:58:31.001Z,78.10
